AIRPORT ID: KHSR

DATE: 2024-04-25 ZULU TIME: 7.15 LOCAL TIME: 1.15


METAR KHSR 250715Z AUTO 20004KT 10SM 12/06 A2981

ALTIMETER: A2981 Q1009

DENSITY ALT: 3600 Ft

WIND DIRECT: 210

WIND SPEED: 4 Gust

WIND CONDITIONS:

VISIBILTY: 10SM 9999M

TEMPERATURE: 53 F 12 C

DEW POINT: 42 F 6 C

HUMID: 66%

LCL: 1,000-3,000 feet

RADIO CHECK: 0

ADVISARIES: 0

GREETINGS: 0

CONVERSATIONS: 0